Airfield :
LOGIN :

Register | Disclaimer

   EN    FR    IT 

 










Legend :    VFR   Marginal VFR   IFR   Intensive IFR   Very Intensive IFR
Visi :
Ceiling :
>= 8 km
>= 3000ft
5 to 8 km
1000 to 3000 ft
1500m to 5 km
500 to 1000 ft
800 to 1500m
200 to 500 ft
< 800m
< 200 ft
Symbols :   Thunderstorms  Fog  Heavy snow  Heavy precipitations  Wind > 20 kt
SIGMETs :     Misc.  Thunderstorms  Icing  Turbulence  Mountain Waves  Volcanic Ashes






- Airport Elevation : 3 ft
- IATA code : LWR


EHLW - Leuuwarden Air Base

CURRENT METAR :
  • 051225Z AUTO 36010KT 330V030 9999 BKN032 BKN037 BKN046 05/M02 Q1031 BLU NOSIG

EXPIRED METARs :
  • 051155Z AUTO 35009KT 300V110 9999 BKN031 BKN040 BKN310 05/M01 Q1031 BLU NOSIG
  • 051125Z AUTO 35009KT 340V050 9999 BKN032 BKN037 BKN300 06/M01 Q1031 BLU NOSIG
  • 051055Z AUTO 36009KT 320V050 9999 BKN035 BKN041 06/M02 Q1030 BLU NOSIG
  • 051025Z AUTO 34006KT 280V010 9999 NCD 05/M02 Q1030 BLU NOSIG
  • 050955Z AUTO 33007KT 290V020 9999 FEW030 05/M01 Q1030 BLU NOSIG

TAF TAF EHLW
Valid from the 05 at 10:00 until the 05 at 22:00 UTC


050933Z 0510/0522 36007KT 9999 FEW030



MET'MAP, your aeronautical weather chart ! - Copyright ORBIFLY December 2007 - Disclaimer

ORBIFLY MET'MAP TEAM :

Programming & Development : Alexandra Zaïnal
Concept & original design : Baudouin d'Aumeries
Assistance for programming : Marc-Olivier Méhu
Technical & hardware support : Manuel Goepfert

Contact : metmap@orbifly.com




SOURCES & CREDITS :

   NOAA